logo
Rechercher aéroport 
image banner adimage banner adimage banner ad
image banner ad

FALE - King Shaka International

Situé à Durban, South Africa

ICAO - FALE, IATA - DUR

Données fournies par Airmate  

Information générale

Coordonnées: S29°36'42" E31°7'10"
Élévation : 304 feet MSL.
Variation magnétique : -25° East
Voir autres Aéroports à Kwazulu-Natal

Données opérationnelles

Special qualification required
Heure actuelle UTC:
Heure actuelle locale:
Météo
METAR: FALE 171700Z 01011KT CAVOK 20/13 Q1014 NOSIG
TAF: TAF FALE 171600Z 1718/1824 30006KT CAVOK TX26/1812Z TN11/1804Z BECMG 1809/1811 18010KT BECMG 1817/1819 27005KT SCT035
Voir NOTAMs / SUP AIP / TFR affectant cet aéroport [VIEW]
Fréquences de communication: [VIEW]

Pistes:

Identifiant RWYQFULongueur (ft)Largeur (ft)SurfaceLDA (ft)
0637°12115187ASPH12139
24217°12115187ASPH12139

Coordonnées de l'aéroport

Adresse: Durban South Africa

Autres services d'aviation

Écoles de pilotage

Ballito Microlight

Ballito Microlight
comefly@mweb.co.za+27842663359

Vue satellite de FALE